createdAt,value
2019-06-07T06:36:14.900Z,1268.00
2019-06-07T06:37:14.840Z,1272.00
2019-06-07T06:38:14.819Z,1272.00
2019-06-07T06:39:14.769Z,1268.00
2019-06-07T06:40:14.737Z,1240.00
2019-06-07T06:41:16.505Z,1200.00
2019-06-07T06:42:14.678Z,1244.00
2019-06-07T06:43:14.642Z,1284.00
2019-06-07T06:44:14.641Z,1296.00
2019-06-07T06:45:14.585Z,1304.00
2019-06-07T06:46:25.710Z,1348.00
2019-06-07T06:47:14.522Z,1352.00
2019-06-07T06:48:14.524Z,1356.00
2019-06-07T06:49:14.457Z,1364.00
2019-06-07T06:50:14.469Z,1316.00
2019-06-07T06:51:14.412Z,1256.00
2019-06-07T06:52:14.385Z,1244.00
2019-06-07T06:53:14.349Z,1260.00
2019-06-07T06:54:14.317Z,1224.00
2019-06-07T06:55:14.292Z,1252.00
2019-06-07T06:56:14.254Z,1232.00
2019-06-07T06:57:19.790Z,1256.00
2019-06-07T06:58:14.169Z,1264.00
2019-06-07T06:59:37.396Z,1224.00
2019-06-07T07:00:14.107Z,1232.00
2019-06-07T07:01:14.078Z,1192.00
2019-06-07T07:02:14.132Z,1168.00
2019-06-07T07:04:14.056Z,1124.00
2019-06-07T07:05:13.945Z,1160.00
2019-06-07T07:06:25.745Z,1164.00
2019-06-07T07:07:13.883Z,1144.00
2019-06-07T07:08:13.877Z,1136.00
2019-06-07T07:09:13.820Z,1140.00
2019-06-07T07:10:13.856Z,1140.00
2019-06-07T07:11:13.771Z,1148.00
2019-06-07T07:12:15.084Z,1124.00
2019-06-07T07:13:13.707Z,1096.00
2019-06-07T07:14:13.703Z,1052.00
2019-06-07T07:15:13.643Z,1044.00
2019-06-07T07:16:13.633Z,1012.00
2019-06-07T07:17:13.591Z,984.00
2019-06-07T07:18:13.561Z,968.00
2019-06-07T07:19:13.523Z,976.00
2019-06-07T07:20:13.523Z,976.00
2019-06-07T07:21:13.455Z,932.00
2019-06-07T07:22:13.426Z,940.00
2019-06-07T07:23:13.401Z,916.00
2019-06-07T07:24:21.514Z,896.00
2019-06-07T07:25:13.356Z,912.00
2019-06-07T07:26:13.351Z,924.00
2019-06-07T07:27:13.339Z,964.00
2019-06-07T07:28:13.252Z,956.00
2019-06-07T07:29:13.230Z,936.00
2019-06-07T07:31:13.181Z,996.00
2019-06-07T07:32:13.179Z,996.00
2019-06-07T07:33:13.130Z,972.00
2019-06-07T07:34:31.830Z,1004.00
2019-06-07T07:35:13.040Z,1012.00
2019-06-07T07:36:28.610Z,1024.00
2019-06-07T07:37:12.964Z,1028.00
2019-06-07T07:38:12.937Z,1028.00
2019-06-07T07:39:12.934Z,1024.00
2019-06-07T07:40:55.573Z,1028.00
2019-06-07T07:41:15.662Z,1040.00
2019-06-07T07:42:20.708Z,1064.00
2019-06-07T07:43:12.798Z,1076.00
2019-06-07T07:44:12.799Z,1096.00
2019-06-07T07:45:12.737Z,1096.00
2019-06-07T07:46:29.975Z,1092.00
2019-06-07T07:47:12.698Z,1056.00
2019-06-07T07:48:17.593Z,1072.00
2019-06-07T07:49:12.628Z,1088.00
2019-06-07T07:50:12.608Z,1068.00
2019-06-07T07:51:12.555Z,1040.00
2019-06-07T07:52:12.563Z,1036.00
2019-06-07T07:53:12.548Z,1052.00
2019-06-07T07:54:12.464Z,1048.00
2019-06-07T07:55:12.481Z,1060.00
2019-06-07T07:56:12.408Z,1068.00
2019-06-07T07:57:12.370Z,1068.00
2019-06-07T07:58:12.373Z,1056.00
2019-06-07T07:59:12.313Z,1056.00
2019-06-07T08:00:49.369Z,1080.00
2019-06-07T08:01:12.254Z,1092.00
2019-06-07T08:02:12.219Z,1096.00
2019-06-07T08:03:12.199Z,1104.00
2019-06-07T08:04:12.173Z,1100.00
2019-06-07T08:05:22.699Z,1104.00
2019-06-07T08:06:12.135Z,1108.00
2019-06-07T08:07:12.065Z,1112.00
2019-06-07T08:08:12.050Z,1112.00
2019-06-07T08:09:12.062Z,1120.00
2019-06-07T08:10:12.021Z,1124.00
2019-06-07T08:11:12.984Z,1140.00
2019-06-07T08:12:11.926Z,1144.00
2019-06-07T08:13:24.528Z,1156.00
2019-06-07T08:14:11.891Z,1168.00
2019-06-07T08:15:11.832Z,1176.00
2019-06-07T08:16:16.505Z,1168.00
2019-06-07T08:17:11.767Z,1172.00
2019-06-07T08:18:11.757Z,1180.00
2019-06-07T08:19:13.095Z,1176.00
2019-06-07T08:20:11.681Z,1188.00
2019-06-07T08:21:24.333Z,1200.00
2019-06-07T08:22:11.627Z,1204.00
2019-06-07T08:23:11.592Z,1204.00
2019-06-07T08:24:11.565Z,1208.00
2019-06-07T08:25:11.868Z,1208.00
2019-06-07T08:26:11.515Z,1208.00
2019-06-07T08:27:25.762Z,1208.00
2019-06-07T08:28:11.445Z,1212.00
2019-06-07T08:29:11.423Z,1208.00
2019-06-07T08:30:46.664Z,1216.00
2019-06-07T08:31:11.370Z,1220.00
2019-06-07T08:32:11.331Z,1220.00
2019-06-07T08:33:25.549Z,1212.00
2019-06-07T08:34:11.272Z,1244.00
2019-06-07T08:35:11.244Z,1256.00
2019-06-07T08:36:19.840Z,1268.00
2019-06-07T08:37:11.218Z,1272.00
2019-06-07T08:38:25.859Z,1284.00
2019-06-07T08:39:11.124Z,1276.00
2019-06-07T08:40:11.146Z,1284.00
2019-06-07T08:41:12.598Z,1292.00
2019-06-07T08:42:15.856Z,1280.00
2019-06-07T08:43:19.477Z,1272.00
2019-06-07T08:44:23.432Z,1272.00
2019-06-07T08:45:11.064Z,1276.00
2019-06-07T08:46:10.946Z,1284.00
2019-06-07T08:47:19.782Z,1288.00
2019-06-07T08:48:26.912Z,1308.00
2019-06-07T08:49:10.860Z,1316.00
2019-06-07T08:50:10.836Z,1328.00
2019-06-07T08:51:10.769Z,1336.00
2019-06-07T08:52:12.428Z,1348.00
2019-06-07T08:53:12.142Z,1356.00
2019-06-07T08:54:22.338Z,1368.00
2019-06-07T08:55:10.724Z,1368.00
2019-06-07T08:56:11.522Z,1380.00
2019-06-07T08:57:20.585Z,1388.00
2019-06-07T08:58:10.626Z,1396.00
2019-06-07T08:59:11.646Z,1396.00
2019-06-07T09:00:42.201Z,1384.00
2019-06-07T09:01:10.486Z,1404.00
2019-06-07T09:02:23.392Z,1428.00
2019-06-07T09:03:10.464Z,1472.00
2019-06-07T09:04:11.295Z,1496.00
2019-06-07T09:05:12.241Z,1532.00
2019-06-07T09:06:53.947Z,1564.00
2019-06-07T09:07:19.193Z,1592.00
2019-06-07T09:08:28.731Z,1616.00
2019-06-07T09:09:10.366Z,1624.00
2019-06-07T09:10:14.371Z,1624.00
2019-06-07T09:11:11.515Z,1664.00
2019-06-07T09:12:11.531Z,1764.00
2019-06-07T09:13:11.652Z,1728.00
2019-06-07T09:14:10.104Z,1696.00
2019-06-07T09:15:20.175Z,1740.00
2019-06-07T09:16:10.055Z,1624.00
2019-06-07T09:17:12.352Z,1564.00
2019-06-07T09:18:37.935Z,1728.00
2019-06-07T09:19:11.039Z,1520.00
2019-06-07T09:20:32.649Z,1592.00
2019-06-07T09:21:10.129Z,1596.00
2019-06-07T09:22:11.447Z,1652.00
2019-06-07T09:23:16.638Z,1484.00
2019-06-07T09:24:11.711Z,1612.00
2019-06-07T09:25:20.171Z,1592.00
2019-06-07T09:26:17.644Z,1596.00
2019-06-07T09:27:10.479Z,1660.00
2019-06-07T09:28:18.739Z,1660.00
2019-06-07T09:29:11.872Z,1664.00
2019-06-07T09:30:16.291Z,1668.00
2019-06-07T09:31:12.327Z,1660.00
2019-06-07T09:32:12.109Z,1660.00
2019-06-07T09:33:09.579Z,1664.00
2019-06-07T09:34:13.916Z,1672.00
2019-06-07T09:35:16.444Z,1688.00
2019-06-07T09:36:12.930Z,1744.00
2019-06-07T09:37:55.313Z,1840.00
2019-06-07T09:38:25.402Z,1908.00
2019-06-07T09:40:24.313Z,1832.00
2019-06-07T09:41:13.816Z,1984.00
2019-06-07T09:42:13.795Z,2128.00
2019-06-07T09:44:24.142Z,2308.00
2019-06-07T09:45:14.202Z,2436.00
2019-06-07T09:46:16.049Z,2568.00
2019-06-07T09:47:31.154Z,2680.00
2019-06-07T09:48:23.917Z,2728.00
2019-06-07T09:49:28.234Z,2712.00
2019-06-07T09:50:13.552Z,2732.00
2019-06-07T09:51:19.784Z,2752.00
2019-06-07T09:52:13.504Z,2724.00
2019-06-07T09:53:22.404Z,2672.00
2019-06-07T09:55:02.391Z,2692.00
2019-06-07T09:55:23.532Z,2864.00
2019-06-07T09:56:13.392Z,3220.00
2019-06-07T09:57:17.549Z,3844.00
2019-06-07T09:59:13.311Z,5220.00
2019-06-07T10:00:38.621Z,5100.00
2019-06-07T10:01:14.101Z,5032.00
2019-06-07T10:02:13.829Z,4928.00
2019-06-07T10:03:21.220Z,4632.00
2019-06-07T10:04:28.485Z,4720.00
2019-06-07T10:05:14.402Z,4640.00
2019-06-07T10:06:13.889Z,4628.00
2019-06-07T10:07:30.729Z,4552.00
2019-06-07T10:09:01.012Z,4464.00
2019-06-07T10:11:12.993Z,4416.00
2019-06-07T10:12:12.968Z,4376.00
2019-06-07T10:13:12.956Z,4344.00
2019-06-07T10:14:12.938Z,4304.00
2019-06-07T10:15:12.894Z,4236.00
2019-06-07T10:16:12.868Z,4176.00
2019-06-07T10:17:12.836Z,4124.00
2019-06-07T10:18:12.807Z,4096.00
2019-06-07T10:19:12.792Z,4044.00
2019-06-07T10:20:12.778Z,3988.00
2019-06-07T10:21:15.162Z,3952.00
2019-06-07T10:22:12.704Z,3928.00
2019-06-07T10:23:12.676Z,3908.00
2019-06-07T10:24:12.657Z,3884.00
2019-06-07T10:25:12.625Z,3852.00
2019-06-07T10:26:12.614Z,3828.00
2019-06-07T10:27:12.593Z,3808.00
2019-06-07T10:28:12.560Z,3784.00
2019-06-07T10:29:12.534Z,3748.00
2019-06-07T10:30:12.503Z,3724.00
2019-06-07T10:31:12.509Z,3708.00
2019-06-07T10:32:12.462Z,3704.00
2019-06-07T10:33:12.440Z,3684.00
2019-06-07T10:34:12.422Z,3656.00
2019-06-07T10:35:15.983Z,3644.00
2019-06-07T10:36:12.367Z,3596.00
2019-06-07T10:37:15.638Z,3556.00
2019-06-07T10:38:12.313Z,3520.00
2019-06-07T10:39:12.296Z,3500.00
2019-06-07T10:40:12.297Z,3488.00
2019-06-07T10:41:12.245Z,3480.00
2019-06-07T10:42:12.222Z,3444.00
2019-06-07T10:43:14.398Z,3420.00
2019-06-07T10:44:12.180Z,3408.00
2019-06-07T10:45:12.372Z,3392.00
2019-06-07T10:46:12.220Z,3368.00
2019-06-07T10:47:12.358Z,3368.00
2019-06-07T10:48:12.088Z,3364.00
2019-06-07T10:49:12.271Z,3380.00
2019-06-07T10:50:12.284Z,3384.00
2019-06-07T10:51:14.576Z,3408.00
2019-06-07T10:52:13.264Z,3440.00
2019-06-07T10:53:12.600Z,3496.00
2019-06-07T10:54:24.693Z,3636.00
2019-06-07T10:55:12.690Z,3828.00
2019-06-07T10:56:13.320Z,4128.00
2019-06-07T10:57:14.552Z,4400.00
2019-06-07T10:58:13.181Z,4628.00
2019-06-07T10:59:12.303Z,4780.00
2019-06-07T11:00:11.854Z,4968.00
2019-06-07T11:01:12.901Z,5164.00
2019-06-07T11:02:11.966Z,5452.00
2019-06-07T11:03:11.889Z,4560.00
2019-06-07T11:04:11.828Z,4096.00
2019-06-07T11:05:20.913Z,4180.00
2019-06-07T11:07:06.447Z,3960.00
2019-06-07T11:08:05.979Z,3928.00
2019-06-07T11:09:05.912Z,4208.00
2019-06-07T11:10:09.379Z,4360.00
2019-06-07T11:11:05.998Z,3356.00
2019-06-07T11:12:06.293Z,4172.00
2019-06-07T11:13:06.036Z,4508.00
2019-06-07T11:14:06.323Z,4364.00
2019-06-07T11:15:04.871Z,4212.00
2019-06-07T11:16:04.838Z,4056.00
2019-06-07T11:17:05.160Z,3908.00
2019-06-07T11:18:06.117Z,3780.00
2019-06-07T11:19:06.034Z,3720.00
2019-06-07T11:20:05.978Z,3692.00
2019-06-07T11:21:06.001Z,3656.00
2019-06-07T11:22:05.980Z,3676.00
2019-06-07T11:23:06.615Z,3688.00
2019-06-07T11:24:06.038Z,3696.00
2019-06-07T11:25:06.767Z,3676.00
2019-06-07T11:26:04.887Z,3684.00
2019-06-07T11:27:04.587Z,3696.00
2019-06-07T11:28:04.574Z,3716.00
2019-06-07T11:29:04.552Z,3756.00
2019-06-07T11:30:04.552Z,3796.00
2019-06-07T11:31:04.505Z,3888.00
2019-06-07T11:32:04.482Z,4020.00
2019-06-07T11:33:04.471Z,4132.00
2019-06-07T11:34:04.462Z,3744.00
2019-06-07T11:35:04.438Z,2536.00
2019-06-07T11:36:04.393Z,2648.00
2019-06-07T11:37:04.406Z,3088.00
2019-06-07T11:38:04.368Z,3768.00
2019-06-07T11:39:04.343Z,2984.00
2019-06-07T11:40:04.318Z,2544.00
2019-06-07T11:41:04.308Z,3016.00
2019-06-07T11:42:05.609Z,2584.00
2019-06-07T11:43:04.233Z,4260.00
2019-06-07T11:44:04.215Z,2408.00
2019-06-07T11:45:04.193Z,2332.00
2019-06-07T11:46:04.181Z,2636.00
2019-06-07T11:47:04.153Z,4292.00
2019-06-07T11:48:04.139Z,4140.00
2019-06-07T11:49:04.126Z,4124.00
2019-06-07T11:50:04.094Z,4160.00
2019-06-07T11:51:04.067Z,4192.00
2019-06-07T11:52:04.061Z,4232.00
2019-06-07T11:53:04.055Z,4264.00
2019-06-07T11:54:04.021Z,4316.00
2019-06-07T11:55:03.982Z,4400.00
2019-06-07T11:56:03.955Z,4420.00
2019-06-07T11:57:03.938Z,4468.00
2019-06-07T11:58:03.906Z,4464.00
2019-06-07T11:59:03.901Z,4496.00
2019-06-07T12:00:03.879Z,4508.00
2019-06-07T12:01:03.845Z,4584.00
2019-06-07T12:02:03.819Z,4576.00
2019-06-07T12:03:03.798Z,4668.00
2019-06-07T12:04:03.789Z,4784.00
2019-06-07T12:05:03.764Z,4924.00
2019-06-07T12:06:03.731Z,2856.00
2019-06-07T12:07:03.738Z,4928.00
2019-06-07T12:08:03.678Z,4976.00
2019-06-07T12:09:03.664Z,2904.00
2019-06-07T12:10:03.648Z,3104.00
2019-06-07T12:11:03.641Z,5120.00
2019-06-07T12:12:03.614Z,2860.00
2019-06-07T12:13:03.589Z,4664.00
2019-06-07T12:14:03.554Z,4556.00
2019-06-07T12:15:03.539Z,4744.00
2019-06-07T12:16:03.524Z,4756.00
2019-06-07T12:17:03.510Z,4724.00
2019-06-07T12:18:03.495Z,4752.00
2019-06-07T12:19:03.451Z,2556.00
2019-06-07T12:20:03.481Z,3260.00
2019-06-07T12:21:03.419Z,4876.00
2019-06-07T12:22:03.388Z,4964.00
2019-06-07T12:23:03.371Z,5020.00
2019-06-07T12:24:03.421Z,3444.00
2019-06-07T12:25:05.822Z,5024.00
2019-06-07T12:26:03.318Z,5076.00
2019-06-07T12:27:03.293Z,5176.00
2019-06-07T12:28:03.300Z,5124.00
2019-06-07T12:29:03.256Z,5088.00
2019-06-07T12:30:09.820Z,4268.00
2019-06-07T12:31:03.239Z,5284.00
2019-06-07T12:32:03.181Z,5272.00
2019-06-07T12:33:03.165Z,5204.00
2019-06-07T12:34:03.157Z,5268.00
2019-06-07T12:35:03.135Z,5372.00
2019-06-07T12:36:03.109Z,5424.00
2019-06-07T12:37:03.086Z,5404.00
2019-06-07T12:38:03.047Z,4100.00
2019-06-07T12:39:03.046Z,4068.00
2019-06-07T12:40:03.031Z,3636.00
2019-06-07T12:41:03.034Z,3292.00
2019-06-07T12:42:02.983Z,3156.00
2019-06-07T12:43:02.965Z,2784.00
2019-06-07T12:44:03.003Z,2840.00
2019-06-07T12:45:02.985Z,2984.00
2019-06-07T12:46:02.887Z,3148.00
2019-06-07T12:47:02.935Z,2932.00
2019-06-07T12:48:03.001Z,2872.00
2019-06-07T12:49:02.830Z,2860.00
2019-06-07T12:50:02.795Z,2836.00
2019-06-07T12:51:02.792Z,2908.00
2019-06-07T12:52:02.763Z,2772.00
2019-06-07T12:53:02.742Z,2608.00
2019-06-07T12:54:02.736Z,2600.00
2019-06-07T12:55:02.695Z,2432.00
2019-06-07T12:56:02.676Z,2488.00
2019-06-07T12:57:02.672Z,2416.00
2019-06-07T12:58:02.631Z,2376.00
2019-06-07T12:59:02.610Z,2268.00
2019-06-07T13:00:02.972Z,2240.00
2019-06-07T13:01:02.563Z,2264.00
2019-06-07T13:02:02.755Z,2152.00
2019-06-07T13:03:02.516Z,2276.00
2019-06-07T13:04:02.519Z,2452.00
2019-06-07T13:05:04.632Z,2500.00
2019-06-07T13:06:02.462Z,2676.00
2019-06-07T13:07:02.431Z,3092.00
2019-06-07T13:08:02.396Z,3632.00
2019-06-07T13:09:11.033Z,3820.00
2019-06-07T13:11:17.324Z,6288.00
2019-06-07T13:12:06.768Z,6504.00
2019-06-07T13:13:06.739Z,6840.00
2019-06-07T13:14:06.719Z,6452.00
2019-06-07T13:15:06.701Z,3860.00
2019-06-07T13:16:06.714Z,4008.00
2019-06-07T13:17:06.645Z,5544.00
2019-06-07T13:18:06.633Z,6116.00
2019-06-07T13:19:06.596Z,5836.00
2019-06-07T13:20:06.587Z,5708.00
2019-06-07T13:21:06.552Z,5744.00
2019-06-07T13:22:06.533Z,4288.00
2019-06-07T13:23:06.512Z,3044.00
2019-06-07T13:24:06.506Z,2980.00
2019-06-07T13:25:06.467Z,3124.00
2019-06-07T13:26:06.438Z,3828.00
2019-06-07T13:27:06.413Z,4696.00
2019-06-07T13:28:06.390Z,5944.00
2019-06-07T13:29:06.360Z,2828.00
2019-06-07T13:30:10.287Z,5676.00
2019-06-07T13:31:06.368Z,2572.00
2019-06-07T13:32:06.300Z,2440.00
2019-06-07T13:33:06.283Z,2340.00
2019-06-07T13:34:06.274Z,2504.00
2019-06-07T13:35:06.249Z,5332.00
2019-06-07T13:36:06.286Z,2340.00
2019-06-07T13:37:06.222Z,2220.00
2019-06-07T13:38:06.184Z,2220.00
2019-06-07T13:39:06.169Z,2280.00
2019-06-07T13:40:06.135Z,2300.00
2019-06-07T13:41:06.085Z,2416.00
2019-06-07T13:42:06.097Z,2460.00
2019-06-07T13:43:06.050Z,2724.00
2019-06-07T13:44:06.045Z,5372.00
2019-06-07T13:45:06.009Z,5552.00
2019-06-07T13:46:05.980Z,3320.00
2019-06-07T13:47:05.970Z,2936.00
2019-06-07T13:48:05.944Z,3044.00
2019-06-07T13:49:05.935Z,3100.00
2019-06-07T13:50:05.900Z,3044.00
2019-06-07T13:51:05.865Z,2928.00
2019-06-07T13:52:05.858Z,5464.00
2019-06-07T13:53:05.810Z,5292.00
2019-06-07T13:54:05.801Z,5120.00
2019-06-07T13:55:05.789Z,3392.00
2019-06-07T13:56:05.756Z,4992.00
2019-06-07T13:57:05.760Z,5032.00
2019-06-07T13:58:05.711Z,5180.00
2019-06-07T13:59:05.677Z,4140.00
2019-06-07T14:00:10.449Z,4544.00
2019-06-07T14:01:05.642Z,5200.00
2019-06-07T14:02:05.625Z,5188.00
2019-06-07T14:03:05.608Z,2444.00
2019-06-07T14:04:05.560Z,2224.00
2019-06-07T14:05:05.573Z,5352.00
2019-06-07T14:06:05.515Z,5368.00
2019-06-07T14:07:14.154Z,5292.00
2019-06-07T14:09:09.926Z,5084.00
2019-06-07T14:10:11.565Z,5004.00
2019-06-07T14:11:09.856Z,5008.00
2019-06-07T14:12:09.837Z,4996.00
2019-06-07T14:13:09.806Z,4240.00
2019-06-07T14:14:09.797Z,5056.00
2019-06-07T14:15:09.772Z,2204.00
2019-06-07T14:16:09.761Z,5252.00
2019-06-07T14:17:09.738Z,4772.00
2019-06-07T14:18:09.716Z,2428.00
2019-06-07T14:19:09.691Z,1856.00
2019-06-07T14:20:10.566Z,1712.00
2019-06-07T14:21:09.632Z,1680.00
2019-06-07T14:22:09.628Z,1752.00
2019-06-07T14:23:09.602Z,1704.00
2019-06-07T14:24:09.577Z,1476.00
2019-06-07T14:25:09.562Z,1348.00
2019-06-07T14:26:09.532Z,1376.00
2019-06-07T14:27:09.513Z,1256.00
2019-06-07T14:28:11.801Z,1088.00
2019-06-07T14:29:09.472Z,968.00
2019-06-07T14:30:09.451Z,900.00
2019-06-07T14:31:09.424Z,900.00
2019-06-07T14:32:09.414Z,892.00
2019-06-07T14:33:09.374Z,716.00
2019-06-07T14:34:09.362Z,648.00
2019-06-07T14:35:09.335Z,532.00
2019-06-07T14:36:09.307Z,476.00
2019-06-07T14:37:09.284Z,492.00
2019-06-07T14:38:09.268Z,532.00
2019-06-07T14:39:09.247Z,548.00
2019-06-07T14:40:09.218Z,552.00
2019-06-07T14:41:09.201Z,600.00
2019-06-07T14:42:10.440Z,624.00
2019-06-07T14:43:09.168Z,596.00
2019-06-07T14:44:09.129Z,592.00
2019-06-07T14:45:09.107Z,536.00
2019-06-07T14:46:09.080Z,492.00
2019-06-07T14:47:09.054Z,464.00
2019-06-07T14:48:09.024Z,436.00
2019-06-07T14:49:09.004Z,372.00
2019-06-07T14:50:08.989Z,320.00
2019-06-07T14:51:08.968Z,288.00
2019-06-07T14:52:08.923Z,268.00
2019-06-07T14:53:08.919Z,252.00
2019-06-07T14:54:08.888Z,248.00
2019-06-07T14:55:08.868Z,208.00
2019-06-07T14:56:08.839Z,188.00
2019-06-07T14:57:08.838Z,196.00
2019-06-07T14:58:08.789Z,212.00
2019-06-07T14:59:08.760Z,240.00
2019-06-07T15:00:11.468Z,256.00
2019-06-07T15:01:08.711Z,252.00
2019-06-07T15:02:08.692Z,240.00
2019-06-07T15:03:08.659Z,212.00
2019-06-07T15:04:08.639Z,216.00
2019-06-07T15:05:08.627Z,232.00
2019-06-07T15:06:08.594Z,260.00
2019-06-07T15:07:08.569Z,280.00
2019-06-07T15:08:08.581Z,236.00
2019-06-07T15:09:08.516Z,204.00
2019-06-07T15:10:08.481Z,188.00
2019-06-07T15:11:08.459Z,184.00
2019-06-07T15:12:23.915Z,176.00
2019-06-07T15:13:08.420Z,180.00
2019-06-07T15:14:08.384Z,184.00
2019-06-07T15:15:08.360Z,196.00
2019-06-07T15:16:08.327Z,228.00
2019-06-07T15:17:08.309Z,272.00
2019-06-07T15:18:08.291Z,340.00
2019-06-07T15:19:08.271Z,440.00
2019-06-07T15:20:08.238Z,564.00
2019-06-07T15:21:08.201Z,732.00
2019-06-07T15:22:08.189Z,968.00
2019-06-07T15:23:08.157Z,1284.00
2019-06-07T15:24:08.124Z,1504.00
2019-06-07T15:25:08.104Z,1648.00
2019-06-07T15:26:08.071Z,1688.00
2019-06-07T15:27:08.045Z,1628.00
2019-06-07T15:28:08.016Z,1632.00
2019-06-07T15:29:07.992Z,1728.00
2019-06-07T15:30:10.228Z,1792.00
2019-06-07T15:31:07.953Z,1744.00
2019-06-07T15:32:07.906Z,1768.00
2019-06-07T15:33:07.899Z,1776.00
2019-06-07T15:34:07.856Z,1816.00
2019-06-07T15:35:07.828Z,1840.00
2019-06-07T15:36:07.831Z,1780.00
2019-06-07T15:37:07.766Z,1928.00
2019-06-07T15:38:07.747Z,2308.00
2019-06-07T15:39:07.719Z,3956.00
2019-06-07T15:40:07.683Z,6056.00
2019-06-07T15:41:07.669Z,6428.00
2019-06-07T15:42:07.641Z,3840.00
2019-06-07T15:43:07.606Z,2428.00
2019-06-07T15:44:07.936Z,6572.00
2019-06-07T15:45:07.557Z,5040.00
2019-06-07T15:46:07.537Z,6680.00
2019-06-07T15:47:07.496Z,3064.00
2019-06-07T15:48:07.467Z,3552.00
2019-06-07T15:49:07.463Z,2212.00
2019-06-07T15:50:07.411Z,2992.00
2019-06-07T15:51:07.383Z,2748.00
2019-06-07T15:52:07.360Z,3764.00
2019-06-07T15:53:07.342Z,3056.00
2019-06-07T15:54:07.443Z,6204.00
2019-06-07T15:55:07.270Z,2748.00
2019-06-07T15:56:07.257Z,6440.00
2019-06-07T15:57:07.227Z,5472.00
2019-06-07T15:58:07.196Z,6300.00
2019-06-07T15:59:07.163Z,6496.00
2019-06-07T16:00:07.138Z,6212.00
2019-06-07T16:01:07.104Z,2788.00
2019-06-07T16:02:07.086Z,6384.00
2019-06-07T16:03:07.056Z,6152.00
2019-06-07T16:04:07.031Z,3136.00
2019-06-07T16:05:07.076Z,2308.00
2019-06-07T16:06:07.041Z,1832.00
2019-06-07T16:07:06.949Z,1304.00
2019-06-07T16:08:06.919Z,1192.00
2019-06-07T16:09:06.896Z,1552.00
2019-06-07T16:10:06.867Z,2052.00
2019-06-07T16:11:06.837Z,2436.00
2019-06-07T16:12:06.803Z,1920.00
2019-06-07T16:13:06.778Z,1344.00
2019-06-07T16:14:06.802Z,1252.00
2019-06-07T16:15:06.714Z,1220.00
2019-06-07T16:16:06.745Z,1296.00
2019-06-07T16:17:06.686Z,1444.00
2019-06-07T16:18:06.638Z,1476.00
2019-06-07T16:19:06.612Z,1252.00
2019-06-07T16:20:06.593Z,1264.00
2019-06-07T16:21:06.564Z,1256.00
2019-06-07T16:22:06.534Z,1204.00
2019-06-07T16:23:06.514Z,1292.00
2019-06-07T16:24:06.471Z,1124.00
2019-06-07T16:25:06.450Z,1196.00
2019-06-07T16:26:06.411Z,1204.00
2019-06-07T16:27:06.395Z,1208.00
2019-06-07T16:28:06.443Z,1224.00
2019-06-07T16:29:06.321Z,1436.00
2019-06-07T16:30:09.350Z,1816.00
2019-06-07T16:31:06.271Z,1452.00
2019-06-07T16:32:06.234Z,1228.00
2019-06-07T16:33:06.212Z,1324.00
2019-06-07T16:34:06.185Z,1292.00
2019-06-07T16:35:06.160Z,1916.00
2019-06-07T16:36:06.134Z,2484.00
2019-06-07T16:37:06.086Z,1392.00
2019-06-07T16:38:06.076Z,1692.00
2019-06-07T16:39:06.059Z,1752.00
2019-06-07T16:40:06.020Z,1508.00
2019-06-07T16:41:05.985Z,1508.00
2019-06-07T16:42:05.958Z,3236.00
2019-06-07T16:43:16.701Z,2664.00
2019-06-07T16:44:05.898Z,3940.00
2019-06-07T16:45:05.882Z,1132.00
2019-06-07T16:46:05.856Z,1024.00
2019-06-07T16:47:05.802Z,980.00
2019-06-07T16:48:05.791Z,908.00
2019-06-07T16:49:05.761Z,852.00
2019-06-07T16:50:05.724Z,824.00
2019-06-07T16:51:05.695Z,836.00
2019-06-07T16:52:05.663Z,900.00
2019-06-07T16:53:05.632Z,836.00
2019-06-07T16:54:05.605Z,736.00
2019-06-07T16:55:05.578Z,696.00
2019-06-07T16:56:05.551Z,676.00
2019-06-07T16:57:05.526Z,672.00
2019-06-07T16:58:05.485Z,624.00
2019-06-07T16:59:05.456Z,572.00
2019-06-07T17:00:05.441Z,524.00
2019-06-07T17:01:05.400Z,468.00
2019-06-07T17:02:05.371Z,420.00
2019-06-07T17:03:05.341Z,352.00
2019-06-07T17:04:05.313Z,316.00
2019-06-07T17:05:05.281Z,268.00
2019-06-07T17:06:05.261Z,236.00
2019-06-07T17:07:05.222Z,200.00
2019-06-07T17:08:05.213Z,188.00
2019-06-07T17:09:05.163Z,208.00
2019-06-07T17:10:05.143Z,248.00
2019-06-07T17:11:05.926Z,300.00
2019-06-07T17:12:05.077Z,400.00
2019-06-07T17:13:05.047Z,488.00
2019-06-07T17:14:05.018Z,560.00
2019-06-07T17:15:04.983Z,612.00
2019-06-07T17:16:04.966Z,648.00
2019-06-07T17:17:04.940Z,684.00
2019-06-07T17:18:04.922Z,712.00
2019-06-07T17:19:04.889Z,720.00
2019-06-07T17:20:04.839Z,720.00
2019-06-07T17:21:04.811Z,704.00
2019-06-07T17:22:05.422Z,684.00
2019-06-07T17:23:04.768Z,668.00
2019-06-07T17:24:04.713Z,668.00
2019-06-07T17:25:04.707Z,676.00
2019-06-07T17:26:04.671Z,656.00
2019-06-07T17:27:04.632Z,640.00
2019-06-07T17:28:04.602Z,652.00
2019-06-07T17:29:04.567Z,664.00
2019-06-07T17:30:04.548Z,664.00
2019-06-07T17:31:04.510Z,644.00
2019-06-07T17:32:04.547Z,660.00
2019-06-07T17:33:04.457Z,652.00
2019-06-07T17:34:04.429Z,644.00
2019-06-07T17:35:04.394Z,628.00
2019-06-07T17:36:04.359Z,592.00
2019-06-07T17:37:04.335Z,540.00
2019-06-07T17:38:04.304Z,500.00
2019-06-07T17:39:04.268Z,456.00
2019-06-07T17:40:04.243Z,412.00
2019-06-07T17:41:04.224Z,392.00
2019-06-07T17:42:04.193Z,388.00
2019-06-07T17:43:04.162Z,412.00
2019-06-07T17:44:04.134Z,416.00
2019-06-07T17:45:04.089Z,424.00
2019-06-07T17:46:04.080Z,396.00
2019-06-07T17:47:04.036Z,364.00
2019-06-07T17:48:04.047Z,380.00
2019-06-07T17:49:03.987Z,424.00
2019-06-07T17:50:04.042Z,460.00
2019-06-07T17:51:03.915Z,504.00
2019-06-07T17:52:03.886Z,564.00
2019-06-07T17:53:03.871Z,580.00
2019-06-07T17:54:03.830Z,596.00
2019-06-07T17:55:03.790Z,588.00
2019-06-07T17:56:03.767Z,564.00
2019-06-07T17:57:03.752Z,548.00
2019-06-07T17:58:03.724Z,524.00
2019-06-07T17:59:03.681Z,508.00
2019-06-07T18:00:27.599Z,492.00
2019-06-07T18:01:03.629Z,480.00
2019-06-07T18:02:14.329Z,476.00
2019-06-07T18:03:03.556Z,484.00
2019-06-07T18:04:03.517Z,512.00
2019-06-07T18:05:03.501Z,512.00
2019-06-07T18:06:03.467Z,484.00
2019-06-07T18:07:03.435Z,456.00
2019-06-07T18:08:03.406Z,428.00
2019-06-07T18:09:03.378Z,412.00
2019-06-07T18:10:03.929Z,396.00
2019-06-07T18:11:03.317Z,376.00
2019-06-07T18:12:03.282Z,360.00
2019-06-07T18:13:03.264Z,340.00
2019-06-07T18:14:10.555Z,340.00
2019-06-07T18:15:03.203Z,336.00
2019-06-07T18:16:03.177Z,332.00
2019-06-07T18:17:03.137Z,332.00
2019-06-07T18:18:03.103Z,320.00
2019-06-07T18:19:03.074Z,304.00
2019-06-07T18:20:03.042Z,300.00
2019-06-07T18:21:03.018Z,300.00
2019-06-07T18:22:02.994Z,308.00
2019-06-07T18:23:02.961Z,324.00
2019-06-07T18:24:02.931Z,304.00
2019-06-07T18:25:02.911Z,292.00
2019-06-07T18:26:02.870Z,300.00
2019-06-07T18:27:02.862Z,304.00
2019-06-07T18:28:02.805Z,292.00
2019-06-07T18:29:02.771Z,288.00
2019-06-07T18:30:11.295Z,272.00
2019-06-07T18:31:02.718Z,260.00
2019-06-07T18:32:02.680Z,248.00
2019-06-07T18:33:02.648Z,232.00
2019-06-07T18:34:02.634Z,216.00
2019-06-07T18:35:02.588Z,200.00
2019-06-07T18:36:02.563Z,176.00
2019-06-07T18:37:02.526Z,160.00
2019-06-07T18:38:02.500Z,144.00
2019-06-07T18:39:02.469Z,132.00
2019-06-07T18:40:02.448Z,124.00
2019-06-07T18:41:02.424Z,116.00
2019-06-07T18:42:02.384Z,112.00
2019-06-07T18:43:02.423Z,112.00
2019-06-07T18:44:02.331Z,108.00
2019-06-07T18:45:02.328Z,116.00
2019-06-07T18:46:02.259Z,128.00
2019-06-07T18:47:02.265Z,136.00
2019-06-07T18:48:02.194Z,132.00
2019-06-07T18:49:02.175Z,136.00
2019-06-07T18:50:02.147Z,160.00
2019-06-07T18:51:02.105Z,200.00
2019-06-07T18:52:02.087Z,240.00
2019-06-07T18:53:02.049Z,272.00
2019-06-07T18:54:02.035Z,288.00
2019-06-07T18:55:01.989Z,300.00
2019-06-07T18:56:02.010Z,308.00
2019-06-07T18:57:01.926Z,312.00